createdAt,value
2022-11-20T00:01:08.161Z,26.75
2022-11-20T00:03:36.119Z,27.98
2022-11-20T00:06:04.581Z,27.90
2022-11-20T00:08:32.716Z,27.50
2022-11-20T00:11:04.930Z,30.40
2022-11-20T00:13:32.878Z,27.67
2022-11-20T00:16:01.270Z,24.85
2022-11-20T00:18:30.589Z,27.92
2022-11-20T00:21:03.586Z,28.63
2022-11-20T00:25:59.235Z,27.85
2022-11-20T00:28:26.990Z,28.23
2022-11-20T00:30:54.770Z,28.30
2022-11-20T00:33:22.477Z,25.10
2022-11-20T00:35:51.584Z,27.20
2022-11-20T00:38:19.337Z,27.00
2022-11-20T00:40:49.859Z,27.75
2022-11-20T00:43:21.468Z,25.15
2022-11-20T00:45:49.216Z,25.05
2022-11-20T00:48:16.941Z,25.50
2022-11-20T00:50:44.716Z,28.27
2022-11-20T00:53:13.918Z,25.55
2022-11-20T00:55:42.008Z,29.02
2022-11-20T00:58:14.144Z,31.85
2022-11-20T01:00:42.249Z,29.10
2022-11-20T01:03:10.033Z,28.35
2022-11-20T01:05:37.739Z,27.33
2022-11-20T01:08:05.986Z,31.27
2022-11-20T01:10:35.053Z,28.48
2022-11-20T01:13:19.292Z,25.33
2022-11-20T01:15:49.250Z,27.65
2022-11-20T01:18:17.002Z,25.73
2022-11-20T01:20:44.795Z,24.00
2022-11-20T01:23:12.539Z,27.45
2022-11-20T01:25:41.867Z,27.20
2022-11-20T01:28:09.561Z,28.38
2022-11-20T01:30:37.257Z,29.58
2022-11-20T01:33:05.009Z,25.63
2022-11-20T01:35:32.794Z,25.48
2022-11-20T01:38:00.598Z,28.08
2022-11-20T01:40:28.407Z,27.70
2022-11-20T01:43:31.650Z,27.70
2022-11-20T01:46:14.302Z,27.40
2022-11-20T01:48:48.618Z,25.65
2022-11-20T01:51:22.914Z,26.95
2022-11-20T01:53:52.460Z,28.80
2022-11-20T01:56:20.591Z,27.50
2022-11-20T01:58:54.280Z,26.02
2022-11-20T02:01:22.712Z,25.33
2022-11-20T02:03:51.522Z,26.20
2022-11-20T02:06:24.980Z,27.45
2022-11-20T02:08:53.467Z,23.73
2022-11-20T02:11:21.482Z,25.40
2022-11-20T02:13:50.654Z,25.55
2022-11-20T02:16:23.421Z,24.20
2022-11-20T02:18:52.424Z,22.83
2022-11-20T02:21:29.340Z,28.77
2022-11-20T02:24:07.811Z,26.70
2022-11-20T02:26:41.299Z,25.98
2022-11-20T02:29:09.102Z,27.35
2022-11-20T02:31:40.391Z,24.50
2022-11-20T02:34:08.176Z,25.10
2022-11-20T02:36:37.664Z,25.83
2022-11-20T02:39:07.582Z,24.65
2022-11-20T02:41:36.851Z,26.95
2022-11-20T02:44:05.642Z,26.90
2022-11-20T02:46:34.068Z,27.35
2022-11-20T02:49:03.431Z,25.27
2022-11-20T02:51:31.320Z,28.40
2022-11-20T02:53:59.542Z,24.52
2022-11-20T02:56:29.113Z,25.92
2022-11-20T02:58:56.924Z,22.60
2022-11-20T03:01:24.923Z,24.42
2022-11-20T03:03:55.445Z,22.80
2022-11-20T03:06:23.606Z,23.95
2022-11-20T03:08:51.394Z,23.83
2022-11-20T03:11:19.935Z,24.45
2022-11-20T03:13:49.067Z,25.00
2022-11-20T03:16:18.826Z,25.65
2022-11-20T03:18:46.929Z,25.10
2022-11-20T03:21:15.851Z,24.58
2022-11-20T03:23:43.689Z,24.58
2022-11-20T03:26:13.896Z,26.38
2022-11-20T03:28:42.323Z,25.92
2022-11-20T03:31:13.460Z,25.73
2022-11-20T03:33:42.739Z,22.27
2022-11-20T03:36:13.404Z,25.05
2022-11-20T03:38:41.842Z,22.27
2022-11-20T03:41:11.359Z,24.13
2022-11-20T03:43:39.461Z,26.48
2022-11-20T03:46:08.197Z,24.60
2022-11-20T03:48:37.318Z,25.13
2022-11-20T03:51:13.216Z,25.10
2022-11-20T03:53:41.423Z,22.33
2022-11-20T03:56:10.333Z,20.55
2022-11-20T03:58:40.408Z,22.85
2022-11-20T04:01:09.987Z,19.27
2022-11-20T04:03:40.666Z,22.10
2022-11-20T04:06:11.194Z,22.67
2022-11-20T04:08:39.332Z,21.33
2022-11-20T04:11:11.786Z,20.80
2022-11-20T04:13:39.717Z,20.92
2022-11-20T04:16:08.994Z,23.00
2022-11-20T04:18:37.385Z,23.00
2022-11-20T04:21:07.267Z,21.92
2022-11-20T04:23:35.072Z,22.77
2022-11-20T04:26:04.407Z,19.75
2022-11-20T04:28:32.103Z,20.70
2022-11-20T04:31:08.014Z,20.13
2022-11-20T04:33:36.332Z,20.30
2022-11-20T04:36:06.757Z,20.95
2022-11-20T04:38:35.311Z,21.17
2022-11-20T04:41:05.054Z,21.70
2022-11-20T04:43:33.448Z,22.95
2022-11-20T04:46:02.436Z,22.98
2022-11-20T04:48:31.557Z,21.80
2022-11-20T04:50:59.391Z,24.90
2022-11-20T04:53:28.454Z,23.17
2022-11-20T04:56:02.323Z,20.05
2022-11-20T04:58:30.393Z,23.40
2022-11-20T05:01:03.219Z,19.20
2022-11-20T05:03:31.040Z,21.52
2022-11-20T05:06:01.699Z,19.83
2022-11-20T05:08:31.254Z,20.65
2022-11-20T05:11:02.535Z,19.00
2022-11-20T05:13:30.282Z,21.25
2022-11-20T05:16:02.715Z,21.67
2022-11-20T05:18:30.530Z,19.23
2022-11-20T05:20:58.546Z,18.67
2022-11-20T05:23:26.589Z,19.45
2022-11-20T05:25:59.447Z,19.08
2022-11-20T05:28:28.098Z,20.10
2022-11-20T05:30:56.541Z,21.33
2022-11-20T05:33:24.354Z,19.15
2022-11-20T05:35:52.133Z,18.50
2022-11-20T05:38:19.818Z,18.70
2022-11-20T05:40:47.475Z,21.73
2022-11-20T05:43:16.518Z,20.38
2022-11-20T05:45:46.321Z,21.15
2022-11-20T05:48:14.008Z,19.75
2022-11-20T05:50:41.718Z,19.73
2022-11-20T05:53:09.429Z,22.15
2022-11-20T05:55:37.083Z,19.70
2022-11-20T05:58:04.829Z,20.48
2022-11-20T06:00:33.937Z,20.27
2022-11-20T06:03:01.710Z,21.05
2022-11-20T06:05:29.490Z,20.58
2022-11-20T06:07:57.251Z,20.45
2022-11-20T06:10:24.908Z,21.42
2022-11-20T06:12:52.617Z,19.92
2022-11-20T06:15:20.339Z,22.17
2022-11-20T06:17:49.348Z,20.73
2022-11-20T06:20:17.205Z,20.20
2022-11-20T06:22:44.902Z,19.65
2022-11-20T06:25:12.574Z,19.35
2022-11-20T06:27:40.250Z,19.92
2022-11-20T06:30:09.171Z,21.52
2022-11-20T06:32:36.828Z,22.52
2022-11-20T06:35:06.747Z,21.63
2022-11-20T06:37:34.487Z,19.05
2022-11-20T06:40:02.146Z,21.23
2022-11-20T06:42:29.849Z,20.10
2022-11-20T06:44:58.120Z,18.38
2022-11-20T06:47:25.926Z,20.88
2022-11-20T06:49:53.627Z,21.75
2022-11-20T06:52:22.833Z,20.00
2022-11-20T06:54:50.592Z,18.60
2022-11-20T06:57:18.290Z,19.73
2022-11-20T06:59:46.552Z,20.50
2022-11-20T07:02:14.404Z,20.73
2022-11-20T07:04:42.088Z,22.30
2022-11-20T07:07:10.941Z,21.35
2022-11-20T07:09:40.308Z,21.67
2022-11-20T07:12:08.279Z,22.60
2022-11-20T07:14:36.533Z,22.80
2022-11-20T07:17:04.389Z,22.63
2022-11-20T07:19:32.188Z,22.10
2022-11-20T07:21:59.921Z,21.63
2022-11-20T07:24:27.658Z,21.27
2022-11-20T07:26:56.759Z,22.60
2022-11-20T07:29:24.477Z,23.60
2022-11-20T07:31:52.206Z,24.23
2022-11-20T07:34:20.923Z,21.65
2022-11-20T07:36:48.537Z,20.08
2022-11-20T07:39:16.868Z,21.52
2022-11-20T07:41:44.887Z,22.00
2022-11-20T07:44:13.948Z,20.55
2022-11-20T07:46:41.624Z,21.38
2022-11-20T07:49:09.605Z,21.77
2022-11-20T07:51:37.343Z,22.05
2022-11-20T07:54:05.300Z,20.25
2022-11-20T07:56:33.001Z,22.30
2022-11-20T07:59:00.677Z,21.98
2022-11-20T08:01:29.694Z,21.08
2022-11-20T08:03:57.430Z,19.58
2022-11-20T08:06:25.708Z,24.38
2022-11-20T08:08:53.521Z,21.40
2022-11-20T08:11:38.727Z,20.77
2022-11-20T08:14:15.415Z,22.42
2022-11-20T08:16:46.873Z,20.92
2022-11-20T08:19:15.664Z,22.45
2022-11-20T08:21:43.537Z,21.23
2022-11-20T08:24:12.157Z,20.80
2022-11-20T08:26:41.186Z,24.42
2022-11-20T08:29:09.245Z,20.90
2022-11-20T08:31:37.282Z,21.73
2022-11-20T08:34:09.136Z,19.80
2022-11-20T08:36:37.650Z,19.30
2022-11-20T08:39:05.705Z,23.90
2022-11-20T08:41:34.318Z,24.73
2022-11-20T08:44:03.803Z,23.77
2022-11-20T08:46:35.478Z,27.35
2022-11-20T08:49:03.285Z,24.40
2022-11-20T08:51:33.795Z,27.38
2022-11-20T08:54:01.731Z,24.95
2022-11-20T08:56:29.846Z,24.80
2022-11-20T09:01:45.412Z,24.60
2022-11-20T09:04:15.283Z,24.55
2022-11-20T09:06:44.425Z,24.00
2022-11-20T09:09:12.191Z,24.23
2022-11-20T09:11:39.915Z,25.88
2022-11-20T09:14:07.723Z,28.23
2022-11-20T09:16:35.412Z,25.48
2022-11-20T09:19:28.648Z,29.83
2022-11-20T09:21:56.892Z,25.65
2022-11-20T09:24:27.113Z,28.35
2022-11-20T09:26:54.938Z,27.48
2022-11-20T09:29:23.256Z,29.27
2022-11-20T09:31:51.228Z,25.90
2022-11-20T09:34:19.087Z,26.05
2022-11-20T09:36:47.228Z,26.70
2022-11-20T09:39:16.270Z,28.75
2022-11-20T09:42:25.590Z,30.20
2022-11-20T09:45:14.185Z,28.38
2022-11-20T09:47:55.677Z,33.45
2022-11-20T09:50:30.875Z,31.45
2022-11-20T09:53:13.380Z,35.15
2022-11-20T09:55:42.697Z,34.20
2022-11-20T09:58:23.663Z,34.25
2022-11-20T10:00:54.665Z,33.35
2022-11-20T10:03:38.270Z,32.33
2022-11-20T10:06:10.655Z,36.38
2022-11-20T10:08:43.992Z,36.65
2022-11-20T10:11:21.630Z,33.75
2022-11-20T10:14:00.589Z,31.08
2022-11-20T10:16:40.743Z,29.10
2022-11-20T10:19:25.718Z,31.90
2022-11-20T10:22:01.814Z,31.48
2022-11-20T10:24:44.686Z,29.40
2022-11-20T10:27:32.628Z,29.48
2022-11-20T10:30:04.627Z,32.00
2022-11-20T10:32:38.225Z,29.93
2022-11-20T10:35:16.447Z,29.13
2022-11-20T10:37:46.880Z,31.88
2022-11-20T10:40:23.757Z,32.58
2022-11-20T10:42:57.082Z,38.92
2022-11-20T10:45:37.608Z,31.83
2022-11-20T10:48:14.769Z,30.60
2022-11-20T10:50:53.241Z,33.45
2022-11-20T10:53:33.549Z,31.33
2022-11-20T10:56:10.864Z,31.92
2022-11-20T10:58:47.987Z,30.00
2022-11-20T11:01:18.025Z,28.90
2022-11-20T11:03:46.058Z,30.42
2022-11-20T11:06:23.898Z,29.92
2022-11-20T11:08:53.906Z,29.17
2022-11-20T11:11:25.113Z,31.50
2022-11-20T11:13:54.425Z,31.83
2022-11-20T11:16:23.992Z,28.67
2022-11-20T11:18:52.131Z,32.22
2022-11-20T11:21:27.226Z,53.67
2022-11-20T11:24:19.848Z,33.33
2022-11-20T11:27:05.504Z,30.77
2022-11-20T11:29:35.351Z,27.88
2022-11-20T11:32:07.923Z,33.08
2022-11-20T11:34:36.480Z,28.20
2022-11-20T11:37:05.304Z,26.08
2022-11-20T11:39:35.804Z,27.17
2022-11-20T11:42:04.146Z,29.02
2022-11-20T11:44:54.867Z,27.80
2022-11-20T11:47:26.045Z,27.60
2022-11-20T11:50:04.588Z,28.17
2022-11-20T11:52:35.013Z,22.98
2022-11-20T11:55:10.256Z,27.48
2022-11-20T11:57:47.172Z,30.52
2022-11-20T12:00:18.777Z,35.75
2022-11-20T12:02:59.780Z,22.70
2022-11-20T12:05:31.057Z,31.05
2022-11-20T12:08:04.355Z,33.70
2022-11-20T12:10:46.164Z,25.95
2022-11-20T12:13:24.268Z,24.58
2022-11-20T12:15:53.755Z,20.02
2022-11-20T12:18:23.372Z,19.60
2022-11-20T12:21:04.208Z,20.45
2022-11-20T12:23:42.658Z,19.08
2022-11-20T12:26:21.199Z,18.42
2022-11-20T12:29:04.234Z,20.63
2022-11-20T12:31:57.888Z,20.70
2022-11-20T12:34:48.549Z,19.58
2022-11-20T12:37:31.996Z,18.42
2022-11-20T12:40:11.799Z,19.75
2022-11-20T12:43:10.015Z,25.10
2022-11-20T12:45:56.301Z,22.13
2022-11-20T12:48:46.262Z,25.65
2022-11-20T12:51:49.408Z,18.45
2022-11-20T12:54:53.873Z,21.23
2022-11-20T12:57:28.332Z,10.00
2022-11-20T13:00:09.384Z,6.25
2022-11-20T13:02:47.602Z,4.03
2022-11-20T13:05:23.791Z,5.15
2022-11-20T13:07:55.695Z,4.95
2022-11-20T13:10:33.858Z,8.05
2022-11-20T13:13:12.882Z,3.65
2022-11-20T13:15:50.697Z,5.28
2022-11-20T13:18:18.998Z,5.60
2022-11-20T13:20:49.265Z,10.27
2022-11-20T13:23:26.776Z,6.13
2022-11-20T13:26:05.484Z,9.68
2022-11-20T13:28:33.614Z,12.52
2022-11-20T13:31:01.490Z,10.80
2022-11-20T13:33:32.829Z,5.30
2022-11-20T13:36:04.496Z,9.45
2022-11-20T13:38:44.851Z,9.13
2022-11-20T13:41:32.394Z,4.53
2022-11-20T13:44:09.100Z,6.18
2022-11-20T13:46:39.449Z,6.68
2022-11-20T13:49:12.431Z,10.68
2022-11-20T13:51:47.638Z,3.15
2022-11-20T13:54:52.750Z,3.00
2022-11-20T13:57:37.109Z,4.38
2022-11-20T14:00:13.827Z,2.10
2022-11-20T14:02:42.660Z,3.45
2022-11-20T14:05:21.087Z,7.13
2022-11-20T14:07:52.424Z,9.23
2022-11-20T14:10:31.341Z,4.13
2022-11-20T14:13:00.715Z,3.17
2022-11-20T14:15:31.619Z,2.50
2022-11-20T14:18:00.330Z,4.57
2022-11-20T14:20:30.582Z,2.67
2022-11-20T14:22:59.743Z,5.00
2022-11-20T14:25:28.859Z,4.93
2022-11-20T14:27:59.299Z,8.45
2022-11-20T14:30:28.936Z,4.90
2022-11-20T14:32:59.415Z,5.07
2022-11-20T14:35:29.006Z,10.77
2022-11-20T14:37:57.851Z,6.03
2022-11-20T14:40:30.404Z,7.32
2022-11-20T14:42:58.766Z,3.95
2022-11-20T14:45:27.829Z,5.45
2022-11-20T14:47:58.270Z,8.52
2022-11-20T14:50:28.090Z,12.50
2022-11-20T14:52:57.906Z,9.38
2022-11-20T14:55:32.140Z,5.60
2022-11-20T14:58:02.078Z,8.93
2022-11-20T15:00:31.258Z,7.82
2022-11-20T15:02:59.239Z,5.68
2022-11-20T15:05:45.670Z,6.28
2022-11-20T15:08:15.820Z,6.18
2022-11-20T15:10:50.214Z,7.82
2022-11-20T15:13:26.605Z,11.20
2022-11-20T15:15:56.981Z,12.45
2022-11-20T15:18:29.178Z,15.80
2022-11-20T15:20:58.479Z,16.88
2022-11-20T15:23:30.086Z,18.48
2022-11-20T15:25:59.975Z,19.52
2022-11-20T15:28:32.912Z,15.43
2022-11-20T15:33:28.719Z,24.60
2022-11-20T15:35:56.602Z,12.73
2022-11-20T15:38:24.575Z,15.85
2022-11-20T15:40:52.510Z,14.32
2022-11-20T15:43:21.687Z,10.60
2022-11-20T15:45:53.148Z,11.18
2022-11-20T15:48:23.822Z,14.32
2022-11-20T15:50:56.512Z,14.88
2022-11-20T15:53:24.595Z,17.30
2022-11-20T15:55:52.332Z,19.77
2022-11-20T15:58:21.544Z,11.20
2022-11-20T16:00:49.368Z,21.25
2022-11-20T16:03:18.751Z,18.20
2022-11-20T16:05:47.625Z,18.33
2022-11-20T16:08:15.988Z,19.35
2022-11-20T16:10:44.087Z,14.18
2022-11-20T16:13:32.702Z,9.50
2022-11-20T16:16:05.908Z,7.95
2022-11-20T16:18:34.843Z,8.50
2022-11-20T16:21:02.975Z,11.32
2022-11-20T16:23:30.893Z,5.82
2022-11-20T16:25:58.713Z,7.28
2022-11-20T16:28:27.053Z,6.78
2022-11-20T16:30:55.337Z,18.50
2022-11-20T16:33:24.635Z,10.63
2022-11-20T16:35:52.344Z,7.88
2022-11-20T16:38:20.146Z,3.90
2022-11-20T16:40:47.914Z,4.97
2022-11-20T16:43:16.133Z,5.88
2022-11-20T16:45:45.922Z,7.53
2022-11-20T16:48:15.229Z,3.85
2022-11-20T16:50:52.137Z,4.65
2022-11-20T16:53:20.990Z,4.00
2022-11-20T16:55:48.983Z,3.17
2022-11-20T16:58:17.392Z,6.40
2022-11-20T17:00:51.204Z,7.18
2022-11-20T17:03:21.008Z,5.90
2022-11-20T17:05:50.369Z,7.88
2022-11-20T17:08:18.171Z,9.48
2022-11-20T17:10:45.976Z,6.53
2022-11-20T17:13:13.700Z,5.38
2022-11-20T17:15:41.428Z,9.43
2022-11-20T17:18:09.180Z,8.38
2022-11-20T17:20:36.933Z,11.68
2022-11-20T17:23:06.021Z,12.05
2022-11-20T17:25:34.234Z,11.52
2022-11-20T17:28:02.094Z,8.80
2022-11-20T17:30:29.868Z,6.97
2022-11-20T17:32:57.558Z,7.57
2022-11-20T17:35:25.335Z,11.35
2022-11-20T17:37:53.053Z,7.20
2022-11-20T17:40:27.163Z,7.82
2022-11-20T17:42:55.780Z,7.53
2022-11-20T17:45:23.539Z,6.95
2022-11-20T17:47:51.255Z,6.78
2022-11-20T17:50:18.987Z,5.22
2022-11-20T17:52:46.703Z,9.07
2022-11-20T17:55:14.454Z,6.95
2022-11-20T17:57:56.782Z,6.38
2022-11-20T18:00:25.201Z,5.65
2022-11-20T18:02:52.921Z,7.38
2022-11-20T18:05:20.665Z,3.65
2022-11-20T18:07:48.438Z,5.10
2022-11-20T18:10:16.174Z,6.35
2022-11-20T18:12:45.355Z,9.98
2022-11-20T18:15:13.075Z,5.70
2022-11-20T18:17:40.771Z,6.82
2022-11-20T18:22:58.478Z,5.57
2022-11-20T18:25:26.628Z,4.75
2022-11-20T18:27:56.393Z,4.70
2022-11-20T18:30:24.599Z,6.10
2022-11-20T18:32:52.366Z,9.82
2022-11-20T18:35:20.164Z,6.28
2022-11-20T18:37:48.499Z,4.85
2022-11-20T18:40:16.387Z,5.22
2022-11-20T18:43:01.565Z,4.88
2022-11-20T18:45:30.788Z,16.77
2022-11-20T18:47:58.516Z,39.78
2022-11-20T18:50:26.245Z,75.90
2022-11-20T18:52:53.966Z,21.02
2022-11-20T18:55:25.001Z,24.10
2022-11-20T18:57:52.771Z,16.50
2022-11-20T19:00:21.004Z,11.25
2022-11-20T19:02:53.376Z,10.02
2022-11-20T19:05:21.365Z,9.05
2022-11-20T19:07:49.074Z,7.10
2022-11-20T19:10:20.374Z,4.35
2022-11-20T19:12:48.265Z,4.45
2022-11-20T19:15:16.122Z,5.32
2022-11-20T19:17:43.909Z,7.68
2022-11-20T19:20:14.332Z,5.85
2022-11-20T19:22:42.129Z,5.90
2022-11-20T19:25:10.305Z,7.53
2022-11-20T19:27:38.316Z,3.53
2022-11-20T19:30:07.064Z,6.00
2022-11-20T19:32:35.325Z,3.50
2022-11-20T19:35:03.670Z,2.53
2022-11-20T19:37:35.154Z,3.97
2022-11-20T19:40:04.735Z,3.55
2022-11-20T19:42:33.306Z,2.72
2022-11-20T19:45:01.105Z,3.10
2022-11-20T19:47:52.795Z,2.25
2022-11-20T19:50:17.010Z,1.83
2022-11-20T19:52:46.138Z,3.17
2022-11-20T19:55:13.863Z,1.88
2022-11-20T19:57:41.726Z,1.48
2022-11-20T20:00:10.747Z,0.98
2022-11-20T20:02:38.496Z,1.10
2022-11-20T20:05:07.078Z,1.30
2022-11-20T20:07:34.924Z,2.35
2022-11-20T20:10:04.322Z,2.00
2022-11-20T20:12:32.074Z,2.50
2022-11-20T20:14:59.809Z,4.00
2022-11-20T20:17:27.593Z,1.23
2022-11-20T20:19:55.425Z,1.52
2022-11-20T20:22:23.216Z,2.10
2022-11-20T20:24:52.033Z,1.38
2022-11-20T20:27:21.221Z,1.25
2022-11-20T20:29:48.983Z,1.10
2022-11-20T20:32:16.824Z,1.60
2022-11-20T20:34:44.581Z,9.70
2022-11-20T20:37:12.299Z,5.93
2022-11-20T20:39:40.021Z,1.48
2022-11-20T20:42:07.783Z,1.20
2022-11-20T20:44:53.306Z,2.97
2022-11-20T20:47:21.050Z,2.25
2022-11-20T20:49:48.801Z,1.67
2022-11-20T20:52:16.628Z,1.70
2022-11-20T20:54:44.384Z,2.88
2022-11-20T20:57:12.745Z,3.63
2022-11-20T20:59:41.914Z,3.38
2022-11-20T21:02:11.142Z,2.75
2022-11-20T21:04:39.099Z,2.03
2022-11-20T21:07:07.054Z,2.45
2022-11-20T21:09:34.798Z,4.55
2022-11-20T21:12:02.554Z,4.60
2022-11-20T21:14:30.308Z,2.13
2022-11-20T21:16:59.423Z,4.13
2022-11-20T21:19:27.294Z,3.38
2022-11-20T21:22:00.164Z,3.17
2022-11-20T21:26:56.118Z,3.95
2022-11-20T21:29:25.325Z,2.85
2022-11-20T21:31:54.047Z,2.58
2022-11-20T21:34:23.931Z,5.00
2022-11-20T21:36:52.111Z,3.10
2022-11-20T21:39:21.767Z,5.30
2022-11-20T21:41:49.617Z,2.92
2022-11-20T21:44:31.042Z,3.97
2022-11-20T21:47:05.370Z,4.07
2022-11-20T21:49:34.549Z,3.45
2022-11-20T21:52:02.291Z,6.90
2022-11-20T21:54:30.932Z,5.53
2022-11-20T21:56:58.979Z,6.43
2022-11-20T21:59:26.803Z,4.70
2022-11-20T22:01:54.727Z,7.65
2022-11-20T22:04:23.390Z,3.83
2022-11-20T22:06:52.802Z,6.72
2022-11-20T22:09:20.542Z,4.82
2022-11-20T22:11:48.364Z,6.05
2022-11-20T22:14:21.566Z,4.95
2022-11-20T22:16:50.378Z,5.97
2022-11-20T22:19:20.050Z,8.00
2022-11-20T22:21:48.100Z,7.53
2022-11-20T22:24:19.729Z,5.05
2022-11-20T22:26:48.119Z,5.82
2022-11-20T22:29:17.020Z,9.82
2022-11-20T22:31:45.274Z,4.88
2022-11-20T22:34:14.050Z,8.73
2022-11-20T22:36:42.327Z,5.93
2022-11-20T22:39:10.651Z,4.68
2022-11-20T22:41:39.701Z,8.05
2022-11-20T22:44:09.027Z,5.18
2022-11-20T22:46:38.275Z,5.78
2022-11-20T22:49:08.727Z,3.60
2022-11-20T22:51:38.737Z,5.82
2022-11-20T22:54:06.724Z,7.70
2022-11-20T22:56:35.349Z,5.47
2022-11-20T22:59:04.803Z,6.85
2022-11-20T23:01:34.025Z,3.38
2022-11-20T23:04:03.586Z,5.38
2022-11-20T23:06:34.113Z,5.43
2022-11-20T23:09:02.155Z,9.18
2022-11-20T23:11:31.473Z,8.90
2022-11-20T23:14:01.240Z,7.63
2022-11-20T23:16:32.491Z,12.25
2022-11-20T23:19:02.037Z,14.55
2022-11-20T23:21:29.844Z,7.90
2022-11-20T23:23:59.295Z,5.93
2022-11-20T23:26:29.882Z,13.30
2022-11-20T23:28:59.427Z,5.70
2022-11-20T23:31:29.307Z,5.28
2022-11-20T23:33:58.353Z,5.72
2022-11-20T23:36:26.009Z,8.07
2022-11-20T23:38:53.730Z,12.52
2022-11-20T23:41:21.437Z,6.70
2022-11-20T23:43:49.161Z,7.95
2022-11-20T23:46:17.217Z,6.93
2022-11-20T23:48:46.026Z,4.15
2022-11-20T23:51:15.501Z,10.20
2022-11-20T23:53:43.401Z,9.90
2022-11-20T23:56:14.368Z,6.20
2022-11-20T23:58:42.489Z,9.98
